Time;durP1;ratioP1;P1;durP2;ratioP2;P2;SDS_P1;SDS_P2;PMS_P1;PMS_P2;Temp;Humidity;BMP_temperature;BMP_pressure;BME280_temperature;BME280_humidity;BME280_pressure;Samples;Min_cycle;Max_cycle;Signal;HPM_P1;HPM_P2
2022/05/14 00:01:17;;;;;;;2.90;2.70;;;17.40;33.20;;;;;;10365124;28;20234;-77
2022/05/14 00:06:23;;;;;;;4.03;3.63;;;17.30;32.80;;;;;;10364779;28;20226;-77
2022/05/14 00:16:50;;;;;;;3.73;3.10;;;17.10;32.80;;;;;;10364202;28;20240;-77
2022/05/14 00:21:53;;;;;;;3.93;3.00;;;17.00;32.80;;;;;;10355633;28;20273;-77
2022/05/14 00:26:57;;;;;;;3.47;3.20;;;16.80;33.10;;;;;;10359892;28;20242;-77
2022/05/14 00:32:00;;;;;;;4.03;3.57;;;16.80;33.70;;;;;;10364060;28;20234;-77
2022/05/14 00:37:04;;;;;;;5.10;3.20;;;16.80;33.50;;;;;;10363650;28;20711;-77
2022/05/14 00:42:09;;;;;;;3.47;2.90;;;16.70;33.60;;;;;;10364208;28;20618;-77
2022/05/14 00:47:16;;;;;;;4.77;3.57;;;16.70;33.60;;;;;;10363572;28;20247;-77
2022/05/14 00:52:22;;;;;;;3.83;3.30;;;16.60;33.50;;;;;;10364019;28;20246;-77
2022/05/14 00:57:28;;;;;;;3.20;2.70;;;16.40;33.30;;;;;;10363749;28;20713;-77
2022/05/14 01:02:32;;;;;;;3.73;2.80;;;16.20;33.20;;;;;;10363973;28;20225;-77
2022/05/14 01:07:37;;;;;;;3.97;3.37;;;16.10;33.10;;;;;;10363853;28;20258;-77
2022/05/14 01:12:52;;;;;;;3.50;3.20;;;16.10;33.40;;;;;;10363579;28;20238;-77
2022/05/14 01:17:55;;;;;;;3.67;2.80;;;16.00;34.10;;;;;;10355791;28;20237;-78
2022/05/14 01:23:05;;;;;;;4.70;3.33;;;15.90;33.20;;;;;;10363199;28;20240;-77
2022/05/14 01:28:10;;;;;;;3.10;2.90;;;15.80;34.80;;;;;;10362932;28;20333;-77
2022/05/14 01:33:13;;;;;;;3.10;2.90;;;15.70;33.90;;;;;;10368532;28;20218;-77
2022/05/14 01:38:18;;;;;;;3.43;3.13;;;15.70;33.80;;;;;;10369701;28;20301;-77
2022/05/14 01:43:22;;;;;;;3.17;2.87;;;15.70;33.70;;;;;;10370194;28;20222;-77
2022/05/14 01:48:26;;;;;;;2.90;2.70;;;15.70;34.00;;;;;;10369736;28;20222;-77
2022/05/14 01:53:29;;;;;;;2.90;2.70;;;15.70;33.80;;;;;;10369036;28;20232;-77
2022/05/14 01:58:39;;;;;;;3.07;2.73;;;15.70;33.80;;;;;;10364917;28;20280;-77
2022/05/14 02:03:45;;;;;;;3.47;3.17;;;15.70;34.40;;;;;;10368612;28;20235;-78
2022/05/14 02:08:49;;;;;;;3.13;2.87;;;15.60;33.80;;;;;;10366356;28;20226;-78
2022/05/14 02:13:54;;;;;;;4.50;2.60;;;15.60;33.90;;;;;;10365135;28;20241;-77
2022/05/14 02:18:57;;;;;;;2.77;2.57;;;15.50;34.10;;;;;;10360230;28;20314;-78
2022/05/14 02:24:01;;;;;;;3.00;2.70;;;15.50;33.80;;;;;;10364429;28;20301;-77
2022/05/14 02:29:05;;;;;;;2.53;2.33;;;15.40;33.40;;;;;;10364208;28;20219;-77
2022/05/14 02:34:08;;;;;;;3.40;2.60;;;15.30;33.60;;;;;;10359465;28;20245;-77
2022/05/14 02:39:12;;;;;;;3.33;3.03;;;15.20;33.70;;;;;;10371274;28;20230;-77
2022/05/14 02:44:16;;;;;;;3.63;3.03;;;15.10;33.80;;;;;;10361773;28;20230;-77
2022/05/14 02:49:19;;;;;;;2.90;2.70;;;15.10;34.30;;;;;;10359246;28;20257;-78
2022/05/14 02:54:22;;;;;;;3.33;3.00;;;15.10;33.90;;;;;;10365579;28;20245;-77
2022/05/14 02:59:27;;;;;;;3.07;2.60;;;15.00;34.00;;;;;;10362388;28;20606;-77
2022/05/14 03:04:36;;;;;;;2.90;2.60;;;15.00;34.30;;;;;;10361304;28;20230;-77
2022/05/14 03:09:40;;;;;;;2.93;2.73;;;15.00;34.30;;;;;;10361553;28;20254;-77
2022/05/14 03:14:45;;;;;;;3.33;3.03;;;14.90;34.00;;;;;;10355829;28;20242;-77
2022/05/14 03:19:49;;;;;;;2.90;2.70;;;14.80;34.00;;;;;;10368209;28;20222;-77
2022/05/14 03:24:52;;;;;;;3.20;2.80;;;14.60;33.80;;;;;;10358481;28;20234;-77
2022/05/14 03:29:57;;;;;;;4.40;3.10;;;14.50;34.20;;;;;;10358987;28;20235;-77
2022/05/14 03:35:02;;;;;;;3.47;2.90;;;14.40;34.80;;;;;;10357814;28;20230;-77
2022/05/14 03:40:07;;;;;;;3.50;2.70;;;14.30;34.60;;;;;;10364211;28;20229;-77
2022/05/14 03:45:12;;;;;;;3.40;3.10;;;14.30;34.60;;;;;;10348803;28;20601;-77
2022/05/14 03:50:16;;;;;;;3.83;3.00;;;14.40;34.80;;;;;;10333040;28;20218;-77
2022/05/14 03:55:19;;;;;;;5.03;3.37;;;14.30;34.40;;;;;;10332051;28;20714;-77
2022/05/14 04:00:24;;;;;;;5.33;3.10;;;14.20;34.40;;;;;;10355277;28;20234;-77
2022/05/14 04:05:27;;;;;;;3.00;2.70;;;14.10;34.70;;;;;;10359339;28;20257;-77
2022/05/14 04:10:30;;;;;;;2.63;2.47;;;14.00;34.60;;;;;;10340848;28;21025;-77
2022/05/14 04:15:35;;;;;;;3.77;2.67;;;13.90;35.70;;;;;;10327748;28;20238;-77
2022/05/14 04:20:38;;;;;;;3.40;3.10;;;13.90;35.40;;;;;;10353700;28;20227;-78
2022/05/14 04:25:41;;;;;;;3.37;3.07;;;13.90;35.40;;;;;;10320012;28;21300;-78
2022/05/14 04:30:47;;;;;;;4.07;3.30;;;13.90;35.50;;;;;;10335029;28;20224;-77
2022/05/14 04:35:50;;;;;;;3.87;3.10;;;14.00;36.20;;;;;;10342764;28;20242;-78
2022/05/14 04:40:53;;;;;;;3.20;3.00;;;14.00;35.90;;;;;;10335627;28;20224;-77
2022/05/14 04:45:58;;;;;;;3.63;3.33;;;14.00;35.90;;;;;;10351246;28;20230;-77
2022/05/14 04:51:01;;;;;;;3.63;3.33;;;14.00;36.70;;;;;;10323660;28;20660;-77
2022/05/14 04:56:06;;;;;;;4.23;3.87;;;14.10;36.50;;;;;;10328373;28;20226;-78
2022/05/14 05:01:11;;;;;;;4.00;3.70;;;14.10;36.80;;;;;;10327796;28;20703;-78
2022/05/14 05:06:14;;;;;;;3.60;3.33;;;14.20;37.60;;;;;;10322129;28;20327;-78
2022/05/14 05:11:17;;;;;;;4.00;3.70;;;14.30;37.20;;;;;;10353616;28;20852;-77
2022/05/14 05:16:22;;;;;;;4.10;3.80;;;14.30;37.40;;;;;;10346176;28;20231;-78
2022/05/14 05:21:25;;;;;;;5.50;3.77;;;14.40;38.30;;;;;;10346533;28;21023;-78
2022/05/14 05:26:29;;;;;;;4.40;4.00;;;14.50;37.90;;;;;;10329083;28;20718;-78
2022/05/14 05:31:34;;;;;;;3.83;3.53;;;14.60;37.90;;;;;;10323953;28;20233;-77
2022/05/14 05:36:37;;;;;;;4.37;3.90;;;14.80;38.70;;;;;;10330493;28;20734;-77
2022/05/14 05:41:41;;;;;;;4.57;4.17;;;14.90;38.20;;;;;;10360134;28;20228;-78
2022/05/14 05:46:45;;;;;;;4.30;4.00;;;15.10;38.40;;;;;;10334858;28;20234;-77
2022/05/14 05:51:48;;;;;;;4.57;4.10;;;15.20;39.20;;;;;;10344722;28;20238;-77
2022/05/14 05:56:56;;;;;;;4.60;4.20;;;15.40;38.60;;;;;;10317367;28;20322;-78
2022/05/14 06:02:01;;;;;;;4.30;3.90;;;15.60;38.80;;;;;;10319916;28;20211;-77
2022/05/14 06:07:04;;;;;;;4.77;4.37;;;15.70;39.10;;;;;;10322333;28;20293;-77
2022/05/14 06:12:09;;;;;;;4.67;4.27;;;15.90;38.80;;;;;;10322332;28;20234;-78
2022/05/14 06:17:14;;;;;;;5.27;4.87;;;16.10;39.20;;;;;;10321699;28;20251;-78
2022/05/14 06:22:17;;;;;;;4.80;4.40;;;16.30;39.70;;;;;;10312538;28;20262;-78
2022/05/14 06:27:20;;;;;;;5.07;4.57;;;16.50;39.30;;;;;;10326105;28;20272;-78
2022/05/14 06:32:25;;;;;;;5.97;4.23;;;16.70;39.30;;;;;;10338939;28;20231;-78
2022/05/14 06:37:28;;;;;;;6.23;4.93;;;16.90;39.70;;;;;;10315424;28;20276;-78
2022/05/14 06:42:32;;;;;;;5.10;4.50;;;17.10;39.40;;;;;;10343477;28;20604;-78
2022/05/14 06:47:46;;;;;;;5.67;5.07;;;17.30;39.40;;;;;;10318412;28;20238;-78
2022/05/14 06:52:53;;;;;;;5.57;4.23;;;17.50;39.80;;;;;;10314237;28;20237;-78
2022/05/14 06:57:56;;;;;;;5.37;4.20;;;17.70;39.80;;;;;;10313312;28;20597;-77
2022/05/14 07:08:18;;;;;;;4.30;3.90;;;18.10;39.40;;;;;;10304388;28;20234;-76
2022/05/14 07:13:25;;;;;;;4.10;3.70;;;18.40;38.80;;;;;;10303786;28;20241;-76
2022/05/14 07:18:30;;;;;;;4.63;3.93;;;18.60;38.60;;;;;;10333858;28;20684;-77
2022/05/14 07:23:33;;;;;;;4.30;3.60;;;18.80;38.50;;;;;;10338440;28;20230;-77
2022/05/14 07:28:36;;;;;;;4.40;3.70;;;19.00;38.20;;;;;;10312022;28;20238;-77
2022/05/14 07:33:41;;;;;;;4.33;3.40;;;19.30;38.30;;;;;;10313589;28;20235;-77
2022/05/14 07:38:45;;;;;;;4.33;2.90;;;19.50;37.70;;;;;;10312827;28;20254;-77
2022/05/14 07:43:52;;;;;;;3.10;2.90;;;19.80;38.40;;;;;;10308065;28;20245;-77
2022/05/14 07:48:59;;;;;;;5.23;2.90;;;20.00;36.70;;;;;;10342314;28;20222;-77
2022/05/14 07:54:03;;;;;;;3.37;2.37;;;20.30;36.80;;;;;;10305338;28;20230;-77
2022/05/14 07:59:07;;;;;;;4.50;2.07;;;20.60;36.30;;;;;;10316039;28;20601;-77
2022/05/14 08:04:11;;;;;;;3.30;2.10;;;20.80;35.80;;;;;;10303984;28;20228;-76
2022/05/14 08:09:15;;;;;;;3.13;1.70;;;21.00;34.80;;;;;;10303674;28;20319;-75
2022/05/14 08:14:19;;;;;;;3.03;1.80;;;21.30;35.20;;;;;;10307480;28;20230;-75
2022/05/14 08:19:23;;;;;;;2.43;1.70;;;21.60;34.80;;;;;;10323222;28;20322;-76
2022/05/14 08:24:34;;;;;;;2.13;1.60;;;21.80;32.60;;;;;;10311086;28;20227;-77
2022/05/14 08:29:38;;;;;;;1.93;1.50;;;22.10;33.70;;;;;;10311503;28;20226;-76
2022/05/14 08:34:42;;;;;;;1.80;1.40;;;22.30;32.20;;;;;;10351404;28;20233;-74
2022/05/14 08:39:46;;;;;;;4.30;1.33;;;22.50;30.50;;;;;;10299648;28;20718;-76
2022/05/14 08:44:50;;;;;;;1.47;1.30;;;22.70;31.50;;;;;;10309291;28;20234;-75
2022/05/14 08:49:56;;;;;;;2.90;1.63;;;22.90;31.30;;;;;;10348386;28;20233;-77
2022/05/14 08:55:09;;;;;;;1.93;1.50;;;23.10;30.50;;;;;;10343949;28;20278;-73
2022/05/14 09:00:14;;;;;;;2.97;1.60;;;23.30;30.00;;;;;;10323510;28;20742;-74
2022/05/14 09:05:21;;;;;;;2.10;1.27;;;23.50;30.30;;;;;;10306060;28;20727;-76
2022/05/14 09:10:31;;;;;;;1.47;1.37;;;23.60;29.20;;;;;;10312716;28;20234;-76
2022/05/14 09:15:34;;;;;;;3.90;1.40;;;23.80;29.40;;;;;;10307907;28;20600;-78
2022/05/14 09:20:49;;;;;;;4.00;1.50;;;23.90;29.60;;;;;;10320361;28;20234;-77
2022/05/14 09:25:53;;;;;;;2.30;1.53;;;24.10;26.60;;;;;;10348261;28;20237;-78
2022/05/14 09:30:58;;;;;;;2.67;1.70;;;24.20;29.10;;;;;;10320373;28;20246;-76
2022/05/14 09:36:04;;;;;;;1.87;1.30;;;24.30;28.70;;;;;;10313676;28;20278;-78
2022/05/14 09:41:13;;;;;;;3.40;1.47;;;24.50;28.40;;;;;;10332461;28;20233;-80
2022/05/14 09:46:26;;;;;;;2.10;1.40;;;24.70;27.30;;;;;;10331313;28;20253;-75
2022/05/14 09:51:33;;;;;;;3.33;1.50;;;24.90;27.40;;;;;;10355716;28;20237;-73
2022/05/14 09:57:05;;;;;;;1.90;1.50;;;25.00;26.40;;;;;;10367447;28;20252;-72
2022/05/14 10:02:26;;;;;;;3.00;1.50;;;25.00;24.20;;;;;;10337886;28;20232;-73
2022/05/14 10:07:37;;;;;;;2.43;1.40;;;25.00;26.20;;;;;;10361714;28;20310;-74
2022/05/14 10:12:45;;;;;;;2.23;1.43;;;25.20;25.70;;;;;;10396809;28;20582;-73
2022/05/14 10:17:58;;;;;;;3.07;1.70;;;25.30;26.20;;;;;;10366286;28;20226;-73
2022/05/14 10:29:03;;;;;;;1.90;1.70;;;25.50;24.50;;;;;;10346610;28;20229;-73
2022/05/14 10:34:11;;;;;;;1.60;1.50;;;25.60;24.10;;;;;;10367659;28;20230;-73
2022/05/14 10:39:22;;;;;;;2.40;1.67;;;25.60;25.30;;;;;;10369365;28;20300;-74
2022/05/14 10:44:35;;;;;;;2.10;1.80;;;25.70;25.00;;;;;;10367616;28;20245;-73
2022/05/14 10:49:43;;;;;;;2.60;1.70;;;25.80;24.50;;;;;;10373733;28;20348;-74
2022/05/14 10:54:48;;;;;;;1.83;1.40;;;25.80;25.00;;;;;;10366056;28;20242;-73
2022/05/14 10:59:55;;;;;;;2.33;1.70;;;25.90;24.90;;;;;;10365439;28;20230;-73
2022/05/14 11:04:59;;;;;;;2.00;1.80;;;26.00;25.00;;;;;;10363157;28;20230;-75
2022/05/14 11:10:22;;;;;;;2.37;1.97;;;26.10;23.80;;;;;;10366249;28;20237;-74
2022/05/14 11:15:28;;;;;;;3.10;1.80;;;26.00;23.10;;;;;;10358795;28;21066;-75
2022/05/14 11:20:32;;;;;;;1.80;1.60;;;26.00;24.20;;;;;;10364989;28;20317;-74
2022/05/14 11:25:36;;;;;;;3.40;1.97;;;26.10;24.60;;;;;;10357208;28;20225;-74
2022/05/14 11:30:42;;;;;;;1.93;1.60;;;26.10;23.70;;;;;;10358812;28;20234;-75
2022/05/14 11:35:48;;;;;;;4.27;1.80;;;26.20;23.40;;;;;;10363404;28;20230;-74
2022/05/14 11:40:58;;;;;;;2.57;1.60;;;26.20;24.50;;;;;;10363029;28;20246;-74
2022/05/14 11:46:21;;;;;;;1.50;1.40;;;26.20;22.00;;;;;;10355428;28;20234;-73
2022/05/14 11:51:32;;;;;;;1.60;1.50;;;26.30;22.70;;;;;;10354438;28;20222;-74
2022/05/14 11:56:44;;;;;;;1.90;1.70;;;26.30;22.90;;;;;;10349971;28;20237;-75
2022/05/14 12:01:49;;;;;;;2.13;1.33;;;26.40;22.40;;;;;;10351479;28;20235;-76
2022/05/14 12:07:19;;;;;;;1.83;1.50;;;26.40;23.40;;;;;;10348732;28;20234;-76
2022/05/14 12:12:33;;;;;;;1.67;1.57;;;26.50;22.00;;;;;;10351334;28;20234;-76
2022/05/14 12:17:36;;;;;;;2.13;1.60;;;26.50;22.10;;;;;;10351679;28;20230;-76
2022/05/14 12:22:39;;;;;;;3.30;1.60;;;26.60;22.80;;;;;;10349480;28;20698;-76
2022/05/14 12:27:49;;;;;;;1.80;1.57;;;26.60;22.00;;;;;;10353323;28;20309;-76
2022/05/14 12:38:14;;;;;;;2.07;1.40;;;26.40;21.90;;;;;;10358634;28;20218;-76
2022/05/14 12:43:18;;;;;;;2.40;1.50;;;26.40;22.30;;;;;;10362589;28;20234;-76
2022/05/14 12:48:22;;;;;;;1.77;1.40;;;26.40;21.20;;;;;;10369684;28;20234;-75
2022/05/14 12:53:34;;;;;;;2.07;1.17;;;26.40;21.90;;;;;;10357982;28;20256;-77
2022/05/14 12:58:40;;;;;;;2.47;1.50;;;26.50;20.80;;;;;;10365074;28;20237;-76
2022/05/14 13:03:48;;;;;;;1.70;1.40;;;26.50;20.80;;;;;;10365705;28;20900;-76
2022/05/14 13:08:56;;;;;;;1.90;1.43;;;26.60;20.30;;;;;;10362261;28;20233;-76
2022/05/14 13:14:12;;;;;;;1.30;1.20;;;26.60;20.70;;;;;;10347496;28;20230;-77
2022/05/14 13:19:22;;;;;;;1.90;1.27;;;26.60;20.00;;;;;;10347560;28;20221;-77
2022/05/14 13:24:28;;;;;;;1.50;1.33;;;26.60;19.40;;;;;;10355098;28;20230;-76
2022/05/14 13:29:34;;;;;;;1.40;1.30;;;26.70;19.50;;;;;;10360504;28;20229;-77
2022/05/14 13:40:02;;;;;;;1.30;1.20;;;26.70;19.40;;;;;;10357698;28;20237;-76
2022/05/14 13:45:11;;;;;;;1.30;1.20;;;26.60;19.30;;;;;;10363219;28;20226;-77
2022/05/14 13:50:14;;;;;;;1.30;1.20;;;26.60;19.20;;;;;;10371925;28;20257;-76
2022/05/14 13:55:32;;;;;;;1.73;1.20;;;26.70;19.40;;;;;;10360736;28;20628;-76
2022/05/14 14:00:53;;;;;;;1.47;1.10;;;26.60;17.60;;;;;;10365556;28;20232;-76
2022/05/14 14:05:58;;;;;;;1.80;0.87;;;26.60;17.70;;;;;;10369378;28;20312;-76
2022/05/14 14:11:02;;;;;;;1.90;1.37;;;26.60;18.70;;;;;;10361711;28;20241;-77
2022/05/14 14:16:07;;;;;;;3.40;1.27;;;26.80;19.00;;;;;;10369410;28;20218;-76
2022/05/14 14:21:12;;;;;;;3.40;1.53;;;26.80;17.60;;;;;;10364340;28;20221;-77
2022/05/14 14:26:16;;;;;;;1.70;1.13;;;26.90;17.20;;;;;;10369265;28;20227;-77
2022/05/14 14:31:22;;;;;;;2.60;1.20;;;26.80;17.80;;;;;;10365699;28;20229;-76
2022/05/14 14:36:26;;;;;;;1.20;1.10;;;26.80;16.80;;;;;;10360791;28;20226;-76
2022/05/14 14:41:29;;;;;;;1.63;1.30;;;26.90;17.40;;;;;;10355597;28;20796;-75
2022/05/14 14:46:34;;;;;;;2.20;1.37;;;26.90;17.50;;;;;;10350948;28;20222;-75
2022/05/14 14:51:37;;;;;;;1.27;1.17;;;26.90;17.90;;;;;;10363463;28;20257;-75
2022/05/14 14:56:41;;;;;;;1.57;1.20;;;26.90;17.10;;;;;;10352861;28;20238;-76
2022/05/14 15:01:58;;;;;;;1.50;1.07;;;26.90;17.20;;;;;;10367327;28;20226;-75
2022/05/14 15:07:03;;;;;;;1.57;0.90;;;26.90;16.80;;;;;;10351806;28;20280;-74
2022/05/14 15:12:07;;;;;;;1.10;1.00;;;27.00;17.60;;;;;;10344057;28;20230;-76
2022/05/14 15:17:12;;;;;;;3.30;1.20;;;27.00;17.00;;;;;;10348354;28;20599;-77
2022/05/14 15:22:15;;;;;;;1.20;1.10;;;27.00;16.90;;;;;;10348686;28;20229;-76
2022/05/14 15:27:18;;;;;;;1.87;0.97;;;27.10;18.10;;;;;;10357906;28;20802;-76
2022/05/14 15:32:25;;;;;;;1.30;1.10;;;27.20;18.20;;;;;;10354588;28;20222;-76
2022/05/14 15:37:32;;;;;;;1.53;1.20;;;27.20;16.40;;;;;;10353467;28;20280;-76
2022/05/14 15:42:38;;;;;;;1.53;1.43;;;27.20;17.10;;;;;;10357449;28;20241;-76
2022/05/14 15:47:45;;;;;;;1.20;1.10;;;27.20;17.10;;;;;;10356307;28;20230;-76
2022/05/14 15:52:49;;;;;;;1.40;1.10;;;27.20;16.50;;;;;;10349341;28;20249;-76
2022/05/14 15:57:53;;;;;;;1.63;1.30;;;27.20;17.00;;;;;;10349827;28;20226;-76
2022/05/14 16:02:58;;;;;;;2.17;1.30;;;27.20;16.80;;;;;;10350982;28;20226;-77
2022/05/14 16:08:02;;;;;;;5.90;1.40;;;27.30;16.50;;;;;;10368831;28;20238;-76
2022/05/14 16:18:37;;;;;;;2.10;1.10;;;27.30;16.90;;;;;;10368297;28;20226;-76
2022/05/14 16:23:41;;;;;;;1.80;1.13;;;27.20;15.40;;;;;;10354326;28;20593;-76
2022/05/14 16:28:46;;;;;;;1.30;1.20;;;27.20;15.60;;;;;;10362754;28;20229;-76
2022/05/14 16:33:51;;;;;;;1.47;1.20;;;27.20;15.30;;;;;;10373910;28;20234;-76
2022/05/14 16:38:54;;;;;;;1.20;1.10;;;27.20;15.50;;;;;;10358406;28;20773;-76
2022/05/14 16:43:58;;;;;;;0.87;0.87;;;27.20;15.90;;;;;;10365238;28;20230;-76
2022/05/14 16:49:03;;;;;;;2.00;1.10;;;27.20;15.90;;;;;;10361456;28;20225;-76
2022/05/14 16:54:07;;;;;;;2.33;1.10;;;27.30;15.60;;;;;;10351560;28;20230;-76
2022/05/14 16:59:11;;;;;;;1.23;1.13;;;27.30;15.70;;;;;;10366576;28;20226;-76
2022/05/14 17:04:16;;;;;;;1.13;1.10;;;27.40;15.70;;;;;;10375395;28;20230;-76
2022/05/14 17:09:19;;;;;;;1.20;1.10;;;27.40;15.10;;;;;;10364454;28;20624;-76
2022/05/14 17:14:23;;;;;;;2.73;1.40;;;27.40;15.50;;;;;;10367728;28;20804;-76
2022/05/14 17:19:27;;;;;;;1.17;1.10;;;27.40;15.10;;;;;;10373465;28;20933;-77
2022/05/14 17:24:30;;;;;;;1.53;0.97;;;27.30;14.80;;;;;;10377777;28;20226;-76
2022/05/14 17:29:33;;;;;;;1.00;0.90;;;27.30;15.00;;;;;;10380345;28;20223;-77
2022/05/14 17:34:39;;;;;;;2.20;1.13;;;27.30;14.90;;;;;;10373218;28;20238;-77
2022/05/14 17:39:44;;;;;;;1.20;1.10;;;27.20;14.40;;;;;;10366424;28;20300;-76
2022/05/14 17:44:48;;;;;;;1.40;1.10;;;27.20;15.30;;;;;;10365211;28;20341;-76
2022/05/14 17:49:53;;;;;;;1.40;1.30;;;27.20;16.00;;;;;;10365173;28;20227;-76
2022/05/14 17:54:56;;;;;;;1.57;1.27;;;27.10;15.40;;;;;;10365023;28;20248;-77
2022/05/14 17:59:59;;;;;;;1.67;1.20;;;27.10;15.90;;;;;;10364097;28;20502;-77
2022/05/14 18:05:04;;;;;;;1.77;1.00;;;27.00;16.40;;;;;;10365648;28;20265;-76
2022/05/14 18:10:09;;;;;;;2.80;1.30;;;26.90;16.00;;;;;;10365143;28;21812;-76
2022/05/14 18:15:13;;;;;;;1.83;1.60;;;26.80;16.20;;;;;;10362917;28;20234;-76
2022/05/14 18:20:21;;;;;;;1.77;1.67;;;26.70;16.80;;;;;;10365187;28;20239;-76
2022/05/14 18:25:24;;;;;;;1.73;1.60;;;26.60;16.80;;;;;;10364266;28;20719;-76
2022/05/14 18:30:30;;;;;;;4.60;1.30;;;26.50;17.30;;;;;;10362348;28;20230;-76
2022/05/14 18:35:41;;;;;;;1.10;1.00;;;26.40;17.70;;;;;;10365791;28;20229;-76
2022/05/14 18:40:46;;;;;;;1.27;1.17;;;26.20;17.80;;;;;;10356912;28;20223;-77
2022/05/14 18:45:50;;;;;;;1.27;1.10;;;26.00;17.80;;;;;;10353799;28;20241;-76
2022/05/14 18:50:55;;;;;;;2.63;1.00;;;25.90;17.80;;;;;;10357779;28;20234;-76
2022/05/14 18:55:58;;;;;;;1.20;1.10;;;25.70;18.10;;;;;;10355555;28;20699;-77
2022/05/14 19:01:02;;;;;;;1.43;1.20;;;25.50;18.10;;;;;;10353755;28;20222;-76
2022/05/14 19:11:30;;;;;;;0.90;0.90;;;25.10;18.60;;;;;;10348557;28;21628;-77
2022/05/14 19:16:33;;;;;;;1.20;1.10;;;25.00;18.50;;;;;;10347003;28;20606;-77
2022/05/14 19:21:38;;;;;;;1.20;1.10;;;24.80;18.40;;;;;;10345732;28;20241;-76
2022/05/14 19:26:41;;;;;;;1.67;1.50;;;24.60;18.30;;;;;;10356920;28;20237;-76
2022/05/14 19:31:45;;;;;;;2.83;1.70;;;24.50;18.30;;;;;;10355777;28;20226;-76
2022/05/14 19:36:52;;;;;;;2.90;1.47;;;24.30;18.70;;;;;;10349423;28;20309;-76
2022/05/14 19:42:03;;;;;;;1.97;1.30;;;24.00;19.10;;;;;;10350604;28;20223;-76
2022/05/14 19:47:07;;;;;;;5.40;2.83;;;23.80;19.40;;;;;;10351482;28;20236;-76
2022/05/14 19:52:12;;;;;;;3.03;2.63;;;23.60;19.40;;;;;;10346798;28;20905;-76
2022/05/14 19:57:15;;;;;;;2.70;2.50;;;23.40;19.80;;;;;;10350301;28;20311;-76
2022/05/14 20:02:18;;;;;;;2.80;2.23;;;23.10;19.70;;;;;;10352848;28;20222;-76
2022/05/14 20:07:23;;;;;;;2.17;2.07;;;22.90;19.80;;;;;;10348505;28;20619;-77
2022/05/14 20:12:27;;;;;;;2.70;1.90;;;22.80;20.40;;;;;;10349668;28;20237;-77
2022/05/14 20:22:58;;;;;;;1.93;1.70;;;22.60;20.40;;;;;;10295702;28;20248;-76
2022/05/14 20:28:02;;;;;;;3.93;1.90;;;22.50;20.60;;;;;;10343798;28;20229;-76
2022/05/14 20:33:09;;;;;;;2.33;2.10;;;22.50;20.60;;;;;;10352483;28;20309;-77
2022/05/14 20:38:15;;;;;;;3.13;2.90;;;22.30;20.50;;;;;;10346452;28;20710;-76
2022/05/14 20:43:19;;;;;;;6.43;5.33;;;22.10;20.80;;;;;;10350578;28;20975;-76
2022/05/14 20:48:23;;;;;;;4.97;4.03;;;21.90;20.80;;;;;;10350586;28;20736;-78
2022/05/14 20:53:27;;;;;;;3.40;3.10;;;21.60;20.80;;;;;;10348828;28;20237;-76
2022/05/14 20:58:30;;;;;;;4.10;3.70;;;21.30;21.20;;;;;;10343859;28;20232;-76
2022/05/14 21:03:36;;;;;;;3.37;3.07;;;21.00;21.30;;;;;;10351445;28;20235;-75
2022/05/14 21:08:41;;;;;;;3.53;3.20;;;20.80;21.80;;;;;;10349621;28;20226;-76
2022/05/14 21:13:45;;;;;;;4.47;2.90;;;20.60;21.90;;;;;;10341945;28;20754;-76
2022/05/14 21:18:48;;;;;;;3.03;2.73;;;20.50;21.90;;;;;;10353902;28;20234;-77
2022/05/14 21:23:53;;;;;;;2.83;2.33;;;20.50;22.30;;;;;;10351913;28;20423;-76
2022/05/14 21:28:57;;;;;;;2.40;2.20;;;20.40;22.80;;;;;;10350296;28;20226;-76
2022/05/14 21:39:24;;;;;;;3.43;2.50;;;20.30;22.70;;;;;;10349348;28;20237;-76
2022/05/14 21:44:27;;;;;;;3.33;2.80;;;20.00;23.00;;;;;;10353917;28;20930;-77
2022/05/14 21:49:31;;;;;;;3.20;2.90;;;19.90;22.90;;;;;;10351403;28;20229;-77
2022/05/14 21:54:36;;;;;;;2.97;2.73;;;19.90;23.00;;;;;;10359320;28;20226;-76
2022/05/14 21:59:39;;;;;;;3.40;3.10;;;19.70;23.30;;;;;;10356703;28;20248;-76
2022/05/14 22:04:45;;;;;;;3.43;2.93;;;19.50;23.10;;;;;;10362218;28;20234;-76
2022/05/14 22:09:49;;;;;;;3.13;2.83;;;19.40;23.80;;;;;;10362502;28;20317;-76
2022/05/14 22:14:53;;;;;;;3.77;2.50;;;19.30;23.90;;;;;;10362904;28;20237;-76
2022/05/14 22:19:57;;;;;;;3.10;2.20;;;19.30;23.60;;;;;;10356413;28;20226;-76
2022/05/14 22:25:01;;;;;;;5.77;2.60;;;19.30;23.80;;;;;;10360930;28;20241;-77
2022/05/14 22:30:07;;;;;;;2.30;2.10;;;19.20;24.40;;;;;;10359771;28;20405;-76
2022/05/14 22:35:11;;;;;;;2.77;2.53;;;19.10;24.20;;;;;;10358657;28;20231;-76
2022/05/14 22:45:37;;;;;;;2.60;2.30;;;18.70;24.50;;;;;;10354531;28;21042;-76
2022/05/14 22:50:43;;;;;;;3.27;2.23;;;18.50;24.30;;;;;;10358192;28;20238;-76
2022/05/14 22:55:49;;;;;;;3.43;2.20;;;18.40;25.30;;;;;;10358311;28;20237;-76
2022/05/14 23:00:54;;;;;;;3.47;2.30;;;18.40;25.20;;;;;;10357156;28;20321;-76
2022/05/14 23:05:58;;;;;;;1.87;1.77;;;18.40;24.90;;;;;;10354285;28;20222;-76
2022/05/14 23:11:03;;;;;;;2.00;1.80;;;18.40;24.70;;;;;;10354086;28;20226;-77
2022/05/14 23:16:08;;;;;;;2.37;2.10;;;18.40;25.10;;;;;;10360875;28;20218;-76
2022/05/14 23:21:11;;;;;;;2.77;2.50;;;18.40;24.70;;;;;;10367060;28;20771;-76
2022/05/14 23:26:15;;;;;;;3.47;2.80;;;18.40;24.80;;;;;;10354261;28;20234;-76
2022/05/14 23:31:19;;;;;;;2.97;2.77;;;18.40;25.10;;;;;;10358513;28;20233;-76
2022/05/14 23:36:25;;;;;;;3.50;2.80;;;18.40;24.90;;;;;;10355147;28;20233;-78
2022/05/14 23:41:31;;;;;;;3.17;2.20;;;18.30;24.90;;;;;;10359709;28;20226;-76
2022/05/14 23:46:34;;;;;;;2.80;2.27;;;18.30;25.20;;;;;;10360735;28;20763;-76
2022/05/14 23:51:38;;;;;;;2.63;2.03;;;18.10;24.90;;;;;;10359262;28;20230;-76
2022/05/14 23:56:42;;;;;;;2.93;2.00;;;17.90;24.90;;;;;;10361292;28;20237;-78
